createdAt,value
2017-06-24T00:00:23.513Z,20.87
2017-06-24T00:02:54.625Z,20.00
2017-06-24T00:08:21.840Z,20.40
2017-06-24T00:10:57.385Z,20.37
2017-06-24T00:13:32.453Z,18.83
2017-06-24T00:16:12.742Z,19.60
2017-06-24T00:18:57.882Z,21.17
2017-06-24T00:21:28.330Z,20.07
2017-06-24T00:24:02.073Z,21.10
2017-06-24T00:26:32.913Z,23.10
2017-06-24T00:29:08.671Z,23.93
2017-06-24T00:31:37.393Z,28.13
2017-06-24T00:34:11.469Z,30.47
2017-06-24T00:36:44.836Z,27.60
2017-06-24T00:39:25.765Z,22.53
2017-06-24T00:41:56.677Z,20.03
2017-06-24T00:44:30.610Z,21.37
2017-06-24T00:47:04.117Z,20.23
2017-06-24T00:49:39.017Z,20.27
2017-06-24T00:52:12.701Z,19.60
2017-06-24T00:54:47.033Z,17.33
2017-06-24T00:57:22.622Z,17.90
2017-06-24T00:59:56.769Z,21.40
2017-06-24T01:02:27.768Z,22.60
2017-06-24T01:05:01.535Z,24.13
2017-06-24T01:07:36.721Z,21.97
2017-06-24T01:10:10.868Z,22.60
2017-06-24T01:12:42.038Z,19.13
2017-06-24T01:15:15.642Z,20.70
2017-06-24T01:17:49.081Z,18.70
2017-06-24T01:20:20.492Z,19.63
2017-06-24T01:22:51.838Z,19.30
2017-06-24T01:25:21.163Z,20.50
2017-06-24T01:27:55.218Z,18.83
2017-06-24T01:30:29.165Z,18.73
2017-06-24T01:33:02.720Z,19.23
2017-06-24T01:35:38.824Z,19.07
2017-06-24T01:38:09.580Z,19.20
2017-06-24T01:40:45.230Z,19.17
2017-06-24T01:43:22.837Z,20.00
2017-06-24T01:45:54.224Z,20.37
2017-06-24T01:48:29.339Z,21.50
2017-06-24T01:51:03.721Z,19.60
2017-06-24T01:53:43.921Z,23.50
2017-06-24T01:56:22.089Z,22.47
2017-06-24T01:58:57.612Z,23.40
2017-06-24T02:01:29.026Z,23.37
2017-06-24T02:03:59.541Z,24.17
2017-06-24T02:06:33.587Z,23.17
2017-06-24T02:09:04.421Z,22.83
2017-06-24T02:11:35.513Z,15.40
2017-06-24T02:14:08.885Z,14.07
2017-06-24T02:16:42.786Z,14.80
2017-06-24T02:19:13.543Z,14.20
2017-06-24T02:21:47.293Z,13.23
2017-06-24T02:24:20.977Z,13.50
2017-06-24T02:26:56.895Z,12.97
2017-06-24T02:29:30.261Z,13.37
2017-06-24T02:31:59.564Z,13.67
2017-06-24T02:34:30.061Z,14.00
2017-06-24T02:37:04.423Z,15.00
2017-06-24T02:39:41.994Z,13.00
2017-06-24T02:42:13.420Z,13.10
2017-06-24T02:44:44.726Z,14.10
2017-06-24T02:47:18.877Z,14.73
2017-06-24T02:49:52.396Z,13.53
2017-06-24T02:52:26.449Z,11.90
2017-06-24T02:54:59.822Z,11.30
2017-06-24T02:57:34.183Z,11.60
2017-06-24T03:00:04.901Z,13.03
2017-06-24T03:02:36.268Z,11.90
2017-06-24T03:05:13.640Z,12.97
2017-06-24T03:07:44.929Z,12.50
2017-06-24T03:10:18.210Z,11.30
2017-06-24T03:12:49.802Z,11.90
2017-06-24T03:15:23.828Z,11.43
2017-06-24T03:17:58.742Z,11.20
2017-06-24T03:23:20.072Z,11.53
2017-06-24T03:25:47.583Z,11.63
2017-06-24T03:28:15.096Z,11.13
2017-06-24T03:30:42.883Z,12.50
2017-06-24T03:33:10.417Z,11.40
2017-06-24T03:35:37.926Z,12.00
2017-06-24T03:38:05.845Z,12.63
2017-06-24T03:40:33.358Z,11.77
2017-06-24T03:43:00.876Z,12.27
2017-06-24T03:45:28.729Z,12.23
2017-06-24T03:47:56.239Z,12.40
2017-06-24T03:50:24.529Z,12.60
2017-06-24T03:52:52.352Z,12.13
2017-06-24T03:55:19.850Z,12.10
2017-06-24T03:57:47.344Z,12.20
2017-06-24T04:00:15.214Z,11.70
2017-06-24T04:02:50.084Z,13.00
2017-06-24T04:05:25.475Z,12.93
2017-06-24T04:07:56.506Z,12.40
2017-06-24T04:10:31.430Z,12.53
2017-06-24T04:13:06.935Z,11.47
2017-06-24T04:15:41.333Z,12.73
2017-06-24T04:18:16.849Z,13.13
2017-06-24T04:20:48.397Z,12.30
2017-06-24T04:23:19.702Z,12.80
2017-06-24T04:25:47.219Z,11.37
2017-06-24T04:28:21.351Z,13.80
2017-06-24T04:30:52.274Z,11.57
2017-06-24T04:33:28.446Z,13.13
2017-06-24T04:36:04.159Z,11.53
2017-06-24T04:38:35.809Z,12.90
2017-06-24T04:41:07.138Z,12.47
2017-06-24T04:43:42.133Z,11.90
2017-06-24T04:46:09.654Z,12.07
2017-06-24T04:48:37.162Z,12.00
2017-06-24T04:51:05.048Z,12.90
2017-06-24T04:53:32.553Z,12.60
2017-06-24T04:56:00.066Z,12.60
2017-06-24T04:58:31.277Z,12.33
2017-06-24T05:01:08.606Z,12.40
2017-06-24T05:03:44.102Z,11.73
2017-06-24T05:06:17.565Z,12.43
2017-06-24T05:08:45.393Z,11.93
2017-06-24T05:11:12.937Z,11.53
2017-06-24T05:13:41.217Z,12.03
2017-06-24T05:16:20.079Z,11.57
2017-06-24T05:18:53.902Z,11.13
2017-06-24T05:21:21.707Z,11.80
2017-06-24T05:23:49.993Z,12.03
2017-06-24T05:26:20.935Z,12.70
2017-06-24T05:28:49.521Z,11.83
2017-06-24T05:31:31.416Z,12.00
2017-06-24T05:34:02.823Z,11.80
2017-06-24T05:36:30.346Z,12.50
2017-06-24T05:38:57.866Z,11.40
2017-06-24T05:41:25.780Z,11.50
2017-06-24T05:43:53.294Z,12.30
2017-06-24T05:46:20.851Z,10.20
2017-06-24T05:48:48.659Z,11.40
2017-06-24T05:51:16.158Z,9.37
2017-06-24T05:53:43.665Z,11.30
2017-06-24T05:56:11.545Z,10.73
2017-06-24T05:58:39.153Z,10.10
2017-06-24T06:01:06.660Z,9.80
2017-06-24T06:03:34.547Z,10.23
2017-06-24T06:06:03.953Z,9.73
2017-06-24T06:08:31.478Z,10.40
2017-06-24T06:10:59.282Z,10.50
2017-06-24T06:13:26.793Z,11.07
2017-06-24T06:16:00.755Z,9.80
2017-06-24T06:18:28.273Z,9.60
2017-06-24T06:20:59.313Z,9.40
2017-06-24T06:23:34.703Z,11.93
2017-06-24T06:26:09.381Z,9.80
2017-06-24T06:28:37.934Z,9.50
2017-06-24T06:31:05.449Z,10.27
2017-06-24T06:33:32.976Z,10.23
2017-06-24T06:36:00.777Z,10.57
2017-06-24T06:38:28.281Z,8.77
2017-06-24T06:40:56.612Z,9.67
2017-06-24T06:43:24.479Z,9.13
2017-06-24T06:45:51.989Z,10.10
2017-06-24T06:48:19.537Z,10.27
2017-06-24T06:50:47.333Z,10.30
2017-06-24T06:53:15.947Z,10.33
2017-06-24T06:55:43.472Z,9.87
2017-06-24T06:58:11.386Z,9.60
2017-06-24T07:00:38.894Z,9.77
2017-06-24T07:03:06.393Z,10.40
2017-06-24T07:05:34.261Z,10.73
2017-06-24T07:08:01.760Z,10.10
2017-06-24T07:10:29.258Z,9.30
2017-06-24T07:12:57.882Z,10.00
2017-06-24T07:15:25.385Z,10.10
2017-06-24T07:17:52.888Z,10.17
2017-06-24T07:20:20.773Z,11.07
2017-06-24T07:22:48.296Z,9.70
2017-06-24T07:25:16.581Z,10.10
2017-06-24T07:27:44.467Z,10.33
2017-06-24T07:30:11.977Z,9.30
2017-06-24T07:32:39.486Z,9.17
2017-06-24T07:35:07.350Z,9.50
2017-06-24T07:37:34.859Z,8.63
2017-06-24T07:40:02.371Z,10.10
2017-06-24T07:42:30.182Z,8.90
2017-06-24T07:44:57.702Z,9.20
2017-06-24T07:47:25.205Z,9.17
2017-06-24T07:49:53.027Z,9.00
2017-06-24T07:52:20.545Z,8.37
2017-06-24T07:54:48.830Z,7.97
2017-06-24T07:57:16.710Z,8.80
2017-06-24T07:59:44.206Z,8.47
2017-06-24T08:02:11.721Z,9.10
2017-06-24T08:04:40.330Z,8.40
2017-06-24T08:07:07.838Z,8.37
2017-06-24T08:09:35.338Z,8.60
2017-06-24T08:12:03.208Z,7.67
2017-06-24T08:14:30.722Z,7.00
2017-06-24T08:16:58.253Z,6.57
2017-06-24T08:19:26.096Z,6.70
2017-06-24T08:21:53.599Z,6.90
2017-06-24T08:24:21.101Z,7.50
2017-06-24T08:26:48.977Z,6.87
2017-06-24T08:29:16.521Z,7.53
2017-06-24T08:31:44.786Z,7.43
2017-06-24T08:34:12.593Z,6.57
2017-06-24T08:36:40.086Z,5.73
2017-06-24T08:39:07.588Z,6.57
2017-06-24T08:41:35.570Z,5.50
2017-06-24T08:44:03.069Z,6.60
2017-06-24T08:46:30.573Z,6.03
2017-06-24T08:48:58.466Z,6.30
2017-06-24T08:51:25.978Z,5.50
2017-06-24T08:53:53.488Z,5.77
2017-06-24T08:56:21.279Z,6.00
2017-06-24T08:58:48.777Z,6.50
2017-06-24T09:01:16.288Z,5.90
2017-06-24T09:03:44.144Z,6.03
2017-06-24T09:06:11.799Z,5.60
2017-06-24T09:08:39.313Z,5.43
2017-06-24T09:11:07.233Z,5.13
2017-06-24T09:13:34.749Z,4.87
2017-06-24T09:16:02.251Z,4.57
2017-06-24T09:18:30.104Z,5.17
2017-06-24T09:20:57.597Z,4.77
2017-06-24T09:23:25.104Z,4.43
2017-06-24T09:25:53.710Z,5.60
2017-06-24T09:28:21.214Z,4.67
2017-06-24T09:30:48.713Z,4.90
2017-06-24T09:33:17.385Z,4.20
2017-06-24T09:35:45.680Z,4.37
2017-06-24T09:38:13.186Z,4.80
2017-06-24T09:40:41.020Z,3.87
2017-06-24T09:43:08.551Z,3.70
2017-06-24T09:45:36.846Z,4.30
2017-06-24T09:48:04.741Z,4.63
2017-06-24T09:50:32.254Z,4.60
2017-06-24T09:53:00.519Z,4.60
2017-06-24T09:55:28.340Z,4.17
2017-06-24T09:57:55.841Z,4.20
2017-06-24T10:00:23.357Z,3.83
2017-06-24T10:02:51.215Z,3.97
2017-06-24T10:05:18.723Z,3.43
2017-06-24T10:07:46.242Z,3.80
2017-06-24T10:10:14.094Z,3.70
2017-06-24T10:12:41.613Z,4.17
2017-06-24T10:15:09.121Z,4.20
2017-06-24T10:17:36.994Z,3.73
2017-06-24T10:20:04.500Z,3.73
2017-06-24T10:22:32.025Z,3.93
2017-06-24T10:24:59.875Z,4.53
2017-06-24T10:27:27.389Z,4.73
2017-06-24T10:29:54.891Z,3.77
2017-06-24T10:32:22.716Z,4.00
2017-06-24T10:34:51.008Z,3.90
2017-06-24T10:37:19.274Z,4.00
2017-06-24T10:39:47.866Z,3.93
2017-06-24T10:42:16.134Z,4.13
2017-06-24T10:44:44.422Z,4.23
2017-06-24T10:47:13.050Z,4.33
2017-06-24T10:49:40.552Z,3.80
2017-06-24T10:52:08.052Z,3.70
2017-06-24T10:54:35.858Z,4.10
2017-06-24T10:57:03.375Z,4.30
2017-06-24T10:59:30.902Z,4.57
2017-06-24T11:01:59.525Z,4.50
2017-06-24T11:04:27.055Z,4.90
2017-06-24T11:06:55.496Z,5.00
2017-06-24T11:09:23.333Z,4.00
2017-06-24T11:11:50.850Z,4.63
2017-06-24T11:14:18.366Z,4.40
2017-06-24T11:16:46.177Z,4.10
2017-06-24T11:19:14.497Z,4.80
2017-06-24T11:21:42.029Z,4.57
2017-06-24T11:24:09.921Z,5.40
2017-06-24T11:26:37.451Z,5.23
2017-06-24T11:29:05.735Z,5.07
2017-06-24T11:31:33.561Z,4.93
2017-06-24T11:34:01.068Z,19.87
2017-06-24T11:36:28.604Z,25.70
2017-06-24T11:38:56.429Z,19.37
2017-06-24T11:41:23.942Z,7.00
2017-06-24T11:43:52.248Z,7.90
2017-06-24T11:46:20.125Z,26.60
2017-06-24T11:48:47.639Z,16.27
2017-06-24T11:51:15.184Z,13.53
2017-06-24T11:53:43.117Z,10.30
2017-06-24T11:56:10.640Z,7.90
2017-06-24T11:58:38.165Z,12.50
2017-06-24T12:01:06.004Z,9.03
2017-06-24T12:03:33.525Z,8.93
2017-06-24T12:06:01.806Z,12.90
2017-06-24T12:08:30.426Z,24.87
2017-06-24T12:10:57.945Z,16.60
2017-06-24T12:13:25.467Z,13.67
2017-06-24T12:15:53.313Z,25.67
2017-06-24T12:18:20.818Z,77.80
2017-06-24T12:20:48.322Z,56.67
2017-06-24T12:23:16.204Z,3.40
2017-06-24T12:25:43.709Z,3.53
2017-06-24T12:28:11.208Z,5.90
2017-06-24T12:30:38.998Z,13.80
2017-06-24T12:33:06.504Z,17.47
2017-06-24T12:35:34.036Z,12.73
2017-06-24T12:38:01.868Z,3.00
2017-06-24T12:40:29.374Z,4.07
2017-06-24T12:42:56.897Z,4.10
2017-06-24T12:45:24.730Z,7.00
2017-06-24T12:47:52.236Z,8.13
2017-06-24T12:50:19.755Z,5.40
2017-06-24T12:52:47.640Z,4.23
2017-06-24T12:55:15.160Z,3.33
2017-06-24T12:57:42.661Z,3.20
2017-06-24T13:00:10.523Z,3.60
2017-06-24T13:02:38.042Z,3.70
2017-06-24T13:05:06.313Z,3.90
2017-06-24T13:07:34.950Z,3.20
2017-06-24T13:10:02.468Z,3.67
2017-06-24T13:12:29.977Z,3.43
2017-06-24T13:14:57.825Z,3.50
2017-06-24T13:17:25.339Z,3.50
2017-06-24T13:19:52.855Z,3.43
2017-06-24T13:22:20.634Z,3.73
2017-06-24T13:24:48.158Z,3.57
2017-06-24T13:27:15.674Z,3.57
2017-06-24T13:29:43.487Z,3.90
2017-06-24T13:32:10.977Z,4.20
2017-06-24T13:34:38.488Z,3.63
2017-06-24T13:37:07.088Z,3.50
2017-06-24T13:39:34.615Z,3.07
2017-06-24T13:42:02.122Z,3.33
2017-06-24T13:44:29.981Z,4.10
2017-06-24T13:46:57.480Z,3.60
2017-06-24T13:49:24.996Z,3.70
2017-06-24T13:51:52.823Z,3.30
2017-06-24T13:54:20.322Z,3.67
2017-06-24T13:56:47.843Z,3.63
2017-06-24T13:59:16.474Z,3.73
2017-06-24T14:01:43.978Z,3.27
2017-06-24T14:04:11.516Z,3.50
2017-06-24T14:06:39.349Z,3.57
2017-06-24T14:09:06.864Z,3.10
2017-06-24T14:11:34.370Z,2.97
2017-06-24T14:14:02.189Z,3.03
2017-06-24T14:16:29.694Z,3.80
2017-06-24T14:18:57.219Z,3.37
2017-06-24T14:21:25.036Z,3.67
2017-06-24T14:23:52.530Z,3.20
2017-06-24T14:26:20.166Z,3.97
2017-06-24T14:28:48.014Z,3.53
2017-06-24T14:31:15.511Z,3.63
2017-06-24T14:33:43.053Z,3.80
2017-06-24T14:36:11.007Z,3.30
2017-06-24T14:38:38.514Z,3.97
2017-06-24T14:41:06.008Z,3.50
2017-06-24T14:43:33.892Z,3.50
2017-06-24T14:46:01.408Z,3.43
2017-06-24T14:48:28.912Z,3.67
2017-06-24T14:50:56.834Z,3.20
2017-06-24T14:53:24.354Z,3.43
2017-06-24T14:55:51.878Z,3.10
2017-06-24T14:58:19.778Z,3.03
2017-06-24T15:00:47.285Z,3.20
2017-06-24T15:03:14.818Z,3.80
2017-06-24T15:05:42.625Z,3.40
2017-06-24T15:08:10.938Z,2.80
2017-06-24T15:10:38.458Z,3.70
2017-06-24T15:13:07.104Z,3.93
2017-06-24T15:15:34.617Z,3.60
2017-06-24T15:18:02.151Z,3.80
2017-06-24T15:20:29.963Z,4.20
2017-06-24T15:22:57.483Z,3.60
2017-06-24T15:25:24.988Z,3.40
2017-06-24T15:27:52.854Z,3.60
2017-06-24T15:30:20.358Z,3.60
2017-06-24T15:32:47.875Z,3.13
2017-06-24T15:35:15.736Z,3.70
2017-06-24T15:38:20.882Z,3.90
2017-06-24T15:40:48.778Z,4.20
2017-06-24T15:43:16.318Z,4.97
2017-06-24T15:45:43.817Z,3.60
2017-06-24T15:48:11.632Z,3.90
2017-06-24T15:50:39.126Z,4.10
2017-06-24T15:53:06.625Z,3.40
2017-06-24T15:55:35.230Z,3.50
2017-06-24T15:58:02.740Z,3.50
2017-06-24T16:00:30.234Z,3.80
2017-06-24T16:02:58.794Z,3.93
2017-06-24T16:05:26.315Z,3.70
2017-06-24T16:07:53.820Z,3.93
2017-06-24T16:10:21.630Z,3.43
2017-06-24T16:12:49.125Z,4.10
2017-06-24T16:15:16.662Z,4.17
2017-06-24T16:17:44.519Z,4.10
2017-06-24T16:20:12.046Z,4.40
2017-06-24T16:22:39.550Z,3.70
2017-06-24T16:25:07.392Z,4.17
2017-06-24T16:27:34.902Z,4.17
2017-06-24T16:30:02.430Z,4.80
2017-06-24T16:32:30.311Z,5.03
2017-06-24T16:34:57.812Z,4.20
2017-06-24T16:37:25.353Z,4.03
2017-06-24T16:39:53.170Z,4.00
2017-06-24T16:42:20.681Z,4.00
2017-06-24T16:44:48.199Z,4.00
2017-06-24T16:47:16.072Z,3.90
2017-06-24T16:49:43.577Z,4.00
2017-06-24T16:52:11.090Z,3.40
2017-06-24T16:54:39.038Z,3.50
2017-06-24T16:57:06.559Z,3.90
2017-06-24T16:59:34.082Z,3.60
2017-06-24T17:02:01.941Z,4.13
2017-06-24T17:04:29.449Z,3.97
2017-06-24T17:06:56.955Z,4.17
2017-06-24T17:09:24.858Z,3.90
2017-06-24T17:11:52.366Z,4.03
2017-06-24T17:14:19.866Z,3.87
2017-06-24T17:16:47.694Z,4.47
2017-06-24T17:19:15.207Z,4.30
2017-06-24T17:21:42.703Z,4.03
2017-06-24T17:24:10.599Z,3.67
2017-06-24T17:26:38.098Z,3.40
2017-06-24T17:29:05.627Z,3.87
2017-06-24T17:31:33.578Z,3.80
2017-06-24T17:34:01.085Z,4.57
2017-06-24T17:36:28.587Z,3.83
2017-06-24T17:38:56.584Z,3.40
2017-06-24T17:41:24.100Z,4.87
2017-06-24T17:43:51.604Z,3.53
2017-06-24T17:46:19.429Z,3.27
2017-06-24T17:48:46.925Z,3.30
2017-06-24T17:51:14.428Z,3.87
2017-06-24T17:53:42.242Z,3.33
2017-06-24T17:56:09.732Z,4.10
2017-06-24T17:58:37.273Z,5.20
2017-06-24T18:01:05.210Z,3.87
2017-06-24T18:03:32.709Z,3.63
2017-06-24T18:06:00.217Z,3.67
2017-06-24T18:08:28.220Z,2.80
2017-06-24T18:10:55.734Z,2.93
2017-06-24T18:13:23.250Z,3.33
2017-06-24T18:15:51.198Z,3.00
2017-06-24T18:18:18.721Z,2.80
2017-06-24T18:20:46.227Z,2.60
2017-06-24T18:23:14.310Z,3.37
2017-06-24T18:25:41.820Z,3.10
2017-06-24T18:28:10.103Z,3.40
2017-06-24T18:30:38.122Z,3.90
2017-06-24T18:33:05.663Z,3.50
2017-06-24T18:35:33.170Z,3.57
2017-06-24T18:38:00.999Z,4.00
2017-06-24T18:40:28.521Z,3.50
2017-06-24T18:42:56.807Z,2.73
2017-06-24T18:45:24.705Z,2.90
2017-06-24T18:47:52.206Z,3.33
2017-06-24T18:50:19.720Z,3.83
2017-06-24T18:52:47.581Z,3.60
2017-06-24T18:55:15.087Z,4.00
2017-06-24T18:57:42.599Z,3.80
2017-06-24T19:00:10.575Z,3.80
2017-06-24T19:02:38.105Z,4.43
2017-06-24T19:05:05.628Z,3.50
2017-06-24T19:07:33.461Z,3.40
2017-06-24T19:10:00.962Z,3.67
2017-06-24T19:12:28.484Z,4.10
2017-06-24T19:14:56.330Z,4.20
2017-06-24T19:17:23.846Z,4.93
2017-06-24T19:19:51.375Z,5.00
2017-06-24T19:22:19.167Z,3.70
2017-06-24T19:24:46.661Z,4.10
2017-06-24T19:27:14.181Z,3.80
2017-06-24T19:29:42.011Z,3.80
2017-06-24T19:32:09.512Z,4.00
2017-06-24T19:34:37.032Z,3.97
2017-06-24T19:37:04.960Z,4.50
2017-06-24T19:39:32.466Z,3.80
2017-06-24T19:41:59.978Z,4.20
2017-06-24T19:44:27.809Z,4.40
2017-06-24T19:46:55.321Z,5.10
2017-06-24T19:49:22.842Z,4.97
2017-06-24T19:51:50.679Z,5.37
2017-06-24T19:54:18.197Z,5.03
2017-06-24T19:56:46.483Z,4.63
2017-06-24T19:59:14.382Z,4.90
2017-06-24T20:01:41.893Z,4.40
2017-06-24T20:04:09.402Z,4.93
2017-06-24T20:06:37.250Z,4.27
2017-06-24T20:09:04.759Z,5.90
2017-06-24T20:11:32.271Z,6.20
2017-06-24T20:14:00.154Z,5.63
2017-06-24T20:16:27.679Z,5.53
2017-06-24T20:18:55.954Z,5.20
2017-06-24T20:21:23.963Z,5.30
2017-06-24T20:23:51.484Z,4.77
2017-06-24T20:26:19.059Z,5.10
2017-06-24T20:28:46.879Z,6.00
2017-06-24T20:31:14.391Z,6.30
2017-06-24T20:33:41.917Z,6.00
2017-06-24T20:36:09.756Z,7.60
2017-06-24T20:38:37.418Z,6.90
2017-06-24T20:41:04.999Z,7.27
2017-06-24T20:43:32.837Z,6.20
2017-06-24T20:46:00.356Z,7.40
2017-06-24T20:48:27.897Z,7.03
2017-06-24T20:50:55.705Z,7.43
2017-06-24T20:53:23.214Z,7.13
2017-06-24T20:55:50.732Z,8.33
2017-06-24T20:58:18.630Z,6.70
2017-06-24T21:00:46.128Z,5.57
2017-06-24T21:03:13.655Z,6.13
2017-06-24T21:05:41.489Z,5.93
2017-06-24T21:08:09.024Z,6.07
2017-06-24T21:10:36.541Z,6.50
2017-06-24T21:13:04.372Z,6.17
2017-06-24T21:15:31.869Z,6.33
2017-06-24T21:17:59.362Z,5.97
2017-06-24T21:20:27.360Z,7.57
2017-06-24T21:22:54.862Z,6.27
2017-06-24T21:25:22.371Z,4.93
2017-06-24T21:27:50.231Z,5.70
2017-06-24T21:30:17.769Z,4.50
2017-06-24T21:32:46.034Z,5.67
2017-06-24T21:35:13.848Z,5.30
2017-06-24T21:37:41.356Z,4.90
2017-06-24T21:40:08.850Z,5.33
2017-06-24T21:42:36.690Z,5.00
2017-06-24T21:45:04.207Z,4.60
2017-06-24T21:47:31.722Z,5.33
2017-06-24T21:49:59.557Z,4.70
2017-06-24T21:52:27.061Z,5.17
2017-06-24T21:54:54.595Z,4.80
2017-06-24T21:57:23.216Z,5.20
2017-06-24T21:59:50.730Z,5.37
2017-06-24T22:02:18.240Z,5.37
2017-06-24T22:04:46.093Z,5.30
2017-06-24T22:07:13.606Z,5.63
2017-06-24T22:09:41.110Z,5.70
2017-06-24T22:12:08.929Z,6.80
2017-06-24T22:14:36.427Z,9.10
2017-06-24T22:17:03.936Z,7.87
2017-06-24T22:19:31.788Z,8.73
2017-06-24T22:21:59.290Z,8.67
2017-06-24T22:24:27.570Z,8.63
2017-06-24T22:26:55.362Z,8.10
2017-06-24T22:29:22.862Z,8.00
2017-06-24T22:31:50.369Z,8.60
2017-06-24T22:34:18.271Z,8.20
2017-06-24T22:36:45.777Z,8.17
2017-06-24T22:39:14.067Z,8.43
2017-06-24T22:41:42.638Z,8.40
2017-06-24T22:44:10.910Z,9.47
2017-06-24T22:46:38.418Z,9.07
2017-06-24T22:49:06.417Z,8.90
2017-06-24T22:51:33.931Z,8.77
2017-06-24T22:54:01.450Z,9.07
2017-06-24T22:56:29.274Z,9.83
2017-06-24T22:58:56.791Z,9.40
2017-06-24T23:01:24.284Z,9.60
2017-06-24T23:03:52.160Z,10.10
2017-06-24T23:06:19.673Z,11.87
2017-06-24T23:08:47.176Z,11.40
2017-06-24T23:11:15.050Z,10.77
2017-06-24T23:13:42.573Z,11.43
2017-06-24T23:16:10.110Z,12.13
2017-06-24T23:18:37.898Z,13.60
2017-06-24T23:21:05.423Z,14.40
2017-06-24T23:23:32.940Z,14.27
2017-06-24T23:26:00.813Z,14.07
2017-06-24T23:28:28.332Z,15.87
2017-06-24T23:30:55.832Z,14.07
2017-06-24T23:33:23.621Z,13.80
2017-06-24T23:35:51.142Z,13.53
2017-06-24T23:38:18.649Z,14.23
2017-06-24T23:40:46.517Z,11.73
2017-06-24T23:43:14.024Z,12.03
2017-06-24T23:45:41.541Z,8.70
2017-06-24T23:48:09.369Z,9.07
2017-06-24T23:50:36.888Z,7.97
2017-06-24T23:53:04.402Z,7.40
2017-06-24T23:55:32.261Z,6.77
2017-06-24T23:57:59.762Z,6.83
